createdAt,value
2018-04-25T00:02:00.572Z,89.60
2018-04-25T00:04:28.479Z,89.46
2018-04-25T00:06:57.232Z,89.32
2018-04-25T00:09:24.792Z,89.13
2018-04-25T00:11:52.654Z,89.78
2018-04-25T00:14:20.377Z,90.07
2018-04-25T00:16:48.600Z,90.13
2018-04-25T00:19:16.404Z,89.50
2018-04-25T00:21:44.309Z,89.60
2018-04-25T00:24:12.733Z,89.92
2018-04-25T00:26:41.451Z,91.08
2018-04-25T00:29:09.740Z,91.50
2018-04-25T00:31:38.645Z,90.99
2018-04-25T00:34:07.798Z,90.82
2018-04-25T00:36:36.198Z,90.55
2018-04-25T00:39:05.589Z,91.00
2018-04-25T00:41:33.313Z,90.77
2018-04-25T00:44:01.204Z,90.27
2018-04-25T00:46:29.333Z,90.31
2018-04-25T00:48:57.403Z,91.18
2018-04-25T00:51:25.264Z,91.55
2018-04-25T00:53:54.750Z,91.89
2018-04-25T00:56:23.140Z,92.14
2018-04-25T00:58:50.938Z,92.20
2018-04-25T01:01:18.868Z,92.30
2018-04-25T01:03:46.905Z,92.26
2018-04-25T01:06:15.019Z,92.01
2018-04-25T01:08:43.720Z,92.17
2018-04-25T01:11:12.504Z,91.96
2018-04-25T01:13:40.835Z,91.77
2018-04-25T01:16:10.312Z,91.61
2018-04-25T01:18:38.938Z,91.37
2018-04-25T01:21:06.853Z,91.46
2018-04-25T01:23:34.827Z,91.46
2018-04-25T01:26:06.816Z,91.52
2018-04-25T01:28:41.578Z,91.90
2018-04-25T01:31:11.308Z,91.98
2018-04-25T01:33:41.312Z,91.72
2018-04-25T01:36:21.650Z,91.51
2018-04-25T01:38:50.647Z,91.83
2018-04-25T01:41:19.049Z,91.75
2018-04-25T01:43:49.998Z,91.60
2018-04-25T01:46:34.807Z,91.58
2018-04-25T01:49:15.630Z,91.86
2018-04-25T01:51:55.244Z,92.12
2018-04-25T01:54:35.480Z,92.16
2018-04-25T01:57:16.878Z,91.87
2018-04-25T01:59:57.178Z,91.86
2018-04-25T02:02:24.930Z,92.08
2018-04-25T02:04:53.368Z,92.25
2018-04-25T02:07:22.703Z,92.56
2018-04-25T02:09:50.717Z,92.59
2018-04-25T02:12:19.034Z,92.35
2018-04-25T02:14:46.799Z,92.83
2018-04-25T02:17:14.253Z,93.09
2018-04-25T02:19:43.062Z,93.38
2018-04-25T02:22:10.453Z,93.21
2018-04-25T02:24:38.694Z,93.47
2018-04-25T02:27:07.402Z,93.89
2018-04-25T02:29:34.661Z,93.90
2018-04-25T02:32:04.046Z,93.85
2018-04-25T02:34:31.914Z,93.87
2018-04-25T02:37:00.028Z,93.87
2018-04-25T02:39:27.680Z,93.98
2018-04-25T02:41:54.909Z,93.75
2018-04-25T02:44:22.517Z,93.88
2018-04-25T02:46:50.503Z,93.76
2018-04-25T02:49:18.950Z,93.70
2018-04-25T02:51:46.984Z,93.86
2018-04-25T02:54:14.331Z,93.99
2018-04-25T02:56:42.739Z,93.48
2018-04-25T02:59:10.089Z,93.29
2018-04-25T03:01:37.884Z,93.34
2018-04-25T03:04:05.527Z,93.36
2018-04-25T03:06:32.878Z,93.68
2018-04-25T03:09:00.513Z,93.85
2018-04-25T03:11:28.206Z,93.89
2018-04-25T03:13:55.656Z,93.61
2018-04-25T03:16:23.754Z,93.77
2018-04-25T03:18:51.892Z,93.81
2018-04-25T03:21:21.805Z,93.63
2018-04-25T03:23:49.564Z,93.74
2018-04-25T03:26:16.959Z,93.75
2018-04-25T03:28:44.435Z,93.80
2018-04-25T03:31:12.500Z,93.66
2018-04-25T03:33:41.063Z,93.50
2018-04-25T03:36:08.348Z,93.37
2018-04-25T03:38:35.933Z,93.67
2018-04-25T03:41:04.804Z,93.87
2018-04-25T03:43:32.390Z,93.72
2018-04-25T03:46:00.399Z,93.56
2018-04-25T03:48:29.658Z,93.31
2018-04-25T03:50:57.025Z,93.66
2018-04-25T03:53:25.105Z,93.69
2018-04-25T03:55:52.966Z,93.75
2018-04-25T03:58:20.848Z,93.81
2018-04-25T04:00:48.067Z,94.17
2018-04-25T04:03:16.013Z,94.15
2018-04-25T04:05:44.221Z,93.96
2018-04-25T04:08:11.463Z,93.72
2018-04-25T04:10:40.178Z,93.65
2018-04-25T04:13:10.084Z,93.37
2018-04-25T04:15:38.378Z,93.85
2018-04-25T04:18:06.348Z,93.75
2018-04-25T04:20:34.049Z,93.57
2018-04-25T04:23:01.824Z,93.57
2018-04-25T04:25:31.559Z,93.56
2018-04-25T04:27:59.495Z,93.39
2018-04-25T04:30:27.481Z,92.93
2018-04-25T04:32:55.063Z,92.94
2018-04-25T04:35:23.254Z,92.97
2018-04-25T04:37:51.098Z,92.38
2018-04-25T04:40:18.859Z,91.87
2018-04-25T04:42:47.391Z,91.96
2018-04-25T04:45:15.621Z,91.61
2018-04-25T04:47:43.316Z,91.31
2018-04-25T04:50:12.029Z,89.24
2018-04-25T04:52:39.819Z,87.52
2018-04-25T04:55:07.786Z,85.79
2018-04-25T04:57:36.254Z,85.24
2018-04-25T05:00:04.460Z,82.55
2018-04-25T05:02:32.390Z,81.03
2018-04-25T05:05:00.711Z,78.51
2018-04-25T05:07:29.520Z,75.16
2018-04-25T05:09:57.645Z,76.90
2018-04-25T05:12:25.252Z,77.85
2018-04-25T05:14:53.688Z,76.83
2018-04-25T05:17:21.845Z,76.94
2018-04-25T05:19:49.909Z,73.85
2018-04-25T05:22:18.250Z,71.97
2018-04-25T05:24:46.324Z,68.63
2018-04-25T05:27:14.259Z,68.14
2018-04-25T05:29:42.667Z,67.64
2018-04-25T05:32:11.431Z,69.23
2018-04-25T05:34:39.539Z,68.66
2018-04-25T05:37:08.627Z,67.42
2018-04-25T05:39:36.776Z,68.88
2018-04-25T05:42:04.946Z,72.28
2018-04-25T05:44:33.605Z,73.29
2018-04-25T05:47:01.829Z,73.01
2018-04-25T05:49:29.764Z,73.19
2018-04-25T05:51:57.601Z,72.71
2018-04-25T05:54:26.610Z,67.61
2018-04-25T05:56:55.409Z,63.89
2018-04-25T05:59:23.985Z,62.88
2018-04-25T06:01:53.119Z,66.08
2018-04-25T06:04:21.523Z,66.55
2018-04-25T06:06:49.889Z,64.21
2018-04-25T06:09:18.259Z,60.44
2018-04-25T06:11:46.501Z,56.64
2018-04-25T06:14:15.089Z,53.74
2018-04-25T06:16:43.338Z,51.49
2018-04-25T06:19:11.356Z,47.84
2018-04-25T06:21:39.272Z,49.94
2018-04-25T06:24:07.444Z,49.38
2018-04-25T06:26:35.568Z,50.55
2018-04-25T06:29:03.211Z,51.72
2018-04-25T06:31:31.802Z,53.03
2018-04-25T06:33:59.767Z,50.22
2018-04-25T06:36:27.714Z,47.87
2018-04-25T06:38:55.330Z,48.19
2018-04-25T06:41:23.382Z,50.43
2018-04-25T06:43:51.624Z,53.58
2018-04-25T06:46:19.432Z,53.55
2018-04-25T06:48:47.272Z,51.39
2018-04-25T06:51:15.885Z,46.67
2018-04-25T06:53:43.996Z,46.89
2018-04-25T06:56:12.954Z,44.54
2018-04-25T06:58:45.711Z,42.27
2018-04-25T07:01:14.049Z,40.64
2018-04-25T07:03:42.101Z,41.53
2018-04-25T07:06:09.835Z,38.46
2018-04-25T07:08:37.760Z,37.50
2018-04-25T07:11:05.534Z,38.60
2018-04-25T07:13:33.724Z,38.29
2018-04-25T07:16:01.894Z,35.98
2018-04-25T07:18:29.821Z,35.54
2018-04-25T07:20:58.541Z,34.91
2018-04-25T07:23:27.246Z,34.20
2018-04-25T07:25:55.110Z,33.40
2018-04-25T07:28:23.340Z,32.65
2018-04-25T07:30:51.754Z,31.88
2018-04-25T07:33:20.165Z,32.24
2018-04-25T07:35:48.222Z,31.40
2018-04-25T07:38:16.607Z,30.17
2018-04-25T07:40:44.330Z,30.86
2018-04-25T07:43:12.170Z,32.21
2018-04-25T07:45:40.437Z,32.64
2018-04-25T07:48:08.375Z,31.64
2018-04-25T07:50:36.606Z,30.82
2018-04-25T07:53:04.795Z,30.59
2018-04-25T07:55:34.408Z,30.26
2018-04-25T07:58:02.521Z,30.25
2018-04-25T08:00:31.692Z,29.95
2018-04-25T08:02:59.666Z,28.25
2018-04-25T08:05:28.202Z,27.10
2018-04-25T08:07:56.625Z,28.04
2018-04-25T08:10:24.491Z,28.18
2018-04-25T08:13:04.570Z,26.38
2018-04-25T08:15:44.875Z,27.58
2018-04-25T08:18:26.124Z,28.35
2018-04-25T08:23:54.197Z,26.69
2018-04-25T08:26:22.625Z,28.07
2018-04-25T08:28:51.060Z,28.59
2018-04-25T08:31:22.491Z,30.36
2018-04-25T08:33:52.012Z,30.27
2018-04-25T08:36:21.365Z,32.21
2018-04-25T08:38:50.540Z,31.91
2018-04-25T08:41:18.874Z,29.52
2018-04-25T08:43:46.711Z,28.38
2018-04-25T08:46:15.529Z,27.85
2018-04-25T08:48:44.101Z,27.33
2018-04-25T08:51:12.468Z,26.50
2018-04-25T08:53:41.323Z,26.71
2018-04-25T08:56:08.861Z,26.20
2018-04-25T08:58:37.773Z,26.31
2018-04-25T09:01:06.221Z,26.97
2018-04-25T09:03:34.327Z,26.23
2018-04-25T09:06:02.286Z,25.78
2018-04-25T09:08:30.695Z,25.72
2018-04-25T09:10:59.820Z,26.16
2018-04-25T09:13:28.754Z,27.25
2018-04-25T09:15:57.296Z,25.98
2018-04-25T09:18:24.860Z,25.41
2018-04-25T09:20:53.284Z,24.75
2018-04-25T09:23:20.876Z,23.77
2018-04-25T09:25:53.416Z,23.93
2018-04-25T09:28:21.216Z,23.17
2018-04-25T09:30:49.760Z,23.18
2018-04-25T09:33:19.232Z,23.67
2018-04-25T09:35:48.316Z,21.88
2018-04-25T09:38:16.935Z,22.98
2018-04-25T09:40:45.040Z,24.78
2018-04-25T09:43:13.132Z,23.96
2018-04-25T09:45:40.810Z,22.76
2018-04-25T09:48:08.417Z,21.59
2018-04-25T09:50:37.306Z,20.11
2018-04-25T09:53:05.796Z,23.23
2018-04-25T09:55:34.081Z,24.79
2018-04-25T09:58:01.942Z,23.14
2018-04-25T10:00:35.252Z,23.67
2018-04-25T10:03:05.109Z,23.12
2018-04-25T10:05:32.998Z,22.89
2018-04-25T10:08:00.858Z,21.50
2018-04-25T10:10:29.161Z,23.36
2018-04-25T10:12:57.438Z,22.94
2018-04-25T10:15:26.818Z,22.18
2018-04-25T10:17:56.016Z,21.86
2018-04-25T10:20:24.687Z,22.65
2018-04-25T10:22:52.997Z,21.91
2018-04-25T10:25:20.762Z,20.74
2018-04-25T10:27:48.552Z,21.56
2018-04-25T10:30:17.987Z,20.30
2018-04-25T10:32:47.369Z,19.01
2018-04-25T10:35:15.253Z,18.88
2018-04-25T10:37:43.606Z,21.68
2018-04-25T10:40:11.686Z,20.07
2018-04-25T10:42:40.228Z,19.53
2018-04-25T10:45:08.467Z,19.87
2018-04-25T10:47:37.186Z,19.71
2018-04-25T10:50:06.277Z,18.44
2018-04-25T10:52:34.233Z,20.06
2018-04-25T10:55:02.492Z,22.79
2018-04-25T10:57:31.234Z,25.32
2018-04-25T11:00:00.777Z,28.09
2018-04-25T11:02:29.747Z,28.63
2018-04-25T11:04:58.666Z,30.24
2018-04-25T11:07:27.100Z,30.12
2018-04-25T11:09:55.124Z,29.22
2018-04-25T11:12:24.212Z,29.11
2018-04-25T11:14:53.071Z,25.21
2018-04-25T11:17:21.596Z,25.48
2018-04-25T11:19:50.554Z,28.37
2018-04-25T11:22:19.016Z,28.88
2018-04-25T11:24:47.482Z,29.58
2018-04-25T11:27:19.877Z,29.97
2018-04-25T11:29:47.743Z,31.52
2018-04-25T11:32:16.283Z,32.20
2018-04-25T11:34:44.561Z,33.47
2018-04-25T11:37:12.550Z,35.07
2018-04-25T11:39:40.441Z,34.96
2018-04-25T11:42:08.076Z,34.09
2018-04-25T11:44:36.168Z,34.16
2018-04-25T11:47:04.059Z,34.52
2018-04-25T11:49:32.342Z,35.59
2018-04-25T11:52:00.061Z,36.45
2018-04-25T11:54:28.378Z,35.60
2018-04-25T11:56:56.893Z,36.14
2018-04-25T11:59:25.178Z,37.30
2018-04-25T12:01:53.510Z,37.29
2018-04-25T12:04:21.344Z,36.40
2018-04-25T12:06:50.133Z,34.81
2018-04-25T12:09:17.751Z,33.90
2018-04-25T12:11:46.636Z,34.83
2018-04-25T12:14:14.879Z,35.47
2018-04-25T12:16:43.005Z,36.36
2018-04-25T12:19:10.878Z,36.33
2018-04-25T12:21:39.341Z,38.26
2018-04-25T12:24:07.581Z,39.05
2018-04-25T12:26:36.682Z,37.88
2018-04-25T12:29:04.413Z,37.91
2018-04-25T12:31:32.943Z,37.64
2018-04-25T12:34:00.927Z,37.58
2018-04-25T12:36:29.691Z,37.73
2018-04-25T12:38:58.003Z,35.75
2018-04-25T12:41:25.575Z,30.49
2018-04-25T12:43:53.301Z,30.09
2018-04-25T12:46:20.982Z,30.50
2018-04-25T12:48:49.447Z,29.51
2018-04-25T12:51:17.866Z,29.56
2018-04-25T12:53:46.359Z,30.15
2018-04-25T12:56:15.804Z,30.78
2018-04-25T12:58:44.847Z,28.37
2018-04-25T13:01:12.754Z,27.17
2018-04-25T13:03:41.141Z,24.03
2018-04-25T13:06:09.408Z,23.31
2018-04-25T13:08:36.948Z,20.78
2018-04-25T13:11:05.972Z,21.95
2018-04-25T13:13:34.107Z,23.18
2018-04-25T13:16:02.474Z,22.05
2018-04-25T13:18:30.549Z,23.02
2018-04-25T13:20:59.791Z,22.17
2018-04-25T13:23:27.798Z,25.26
2018-04-25T13:25:56.050Z,26.90
2018-04-25T13:28:23.763Z,27.59
2018-04-25T13:30:51.763Z,28.93
2018-04-25T13:33:19.982Z,30.06
2018-04-25T13:35:48.562Z,27.99
2018-04-25T13:38:16.622Z,25.66
2018-04-25T13:40:44.154Z,25.12
2018-04-25T13:43:12.568Z,27.33
2018-04-25T13:45:40.702Z,28.43
2018-04-25T13:48:08.346Z,29.28
2018-04-25T13:50:37.029Z,30.53
2018-04-25T13:53:05.668Z,32.25
2018-04-25T13:55:34.562Z,31.29
2018-04-25T13:58:02.783Z,31.62
2018-04-25T14:00:31.450Z,32.38
2018-04-25T14:02:59.393Z,33.57
2018-04-25T14:05:27.841Z,33.22
2018-04-25T14:07:55.567Z,32.67
2018-04-25T14:10:23.807Z,29.68
2018-04-25T14:12:51.956Z,30.15
2018-04-25T14:15:19.867Z,30.49
2018-04-25T14:17:47.586Z,31.64
2018-04-25T14:20:15.423Z,33.75
2018-04-25T14:22:44.173Z,34.11
2018-04-25T14:25:12.167Z,34.53
2018-04-25T14:27:40.399Z,35.96
2018-04-25T14:30:08.681Z,36.66
2018-04-25T14:32:36.712Z,37.49
2018-04-25T14:35:04.768Z,38.32
2018-04-25T14:37:32.669Z,38.90
2018-04-25T14:40:00.387Z,38.59
2018-04-25T14:42:28.377Z,37.79
2018-04-25T14:44:57.059Z,38.43
2018-04-25T14:47:25.819Z,38.66
2018-04-25T14:49:54.097Z,38.91
2018-04-25T14:52:22.483Z,39.18
2018-04-25T14:54:50.880Z,39.02
2018-04-25T14:57:18.533Z,38.66
2018-04-25T14:59:47.197Z,38.41
2018-04-25T15:02:15.262Z,38.05
2018-04-25T15:04:43.264Z,39.71
2018-04-25T15:07:11.093Z,39.94
2018-04-25T15:09:38.959Z,40.07
2018-04-25T15:12:06.668Z,40.36
2018-04-25T15:14:34.863Z,39.64
2018-04-25T15:17:02.794Z,40.82
2018-04-25T15:19:30.638Z,40.96
2018-04-25T15:21:58.672Z,41.95
2018-04-25T15:24:27.112Z,42.77
2018-04-25T15:26:55.608Z,42.29
2018-04-25T15:29:23.604Z,41.81
2018-04-25T15:31:51.951Z,41.88
2018-04-25T15:34:19.601Z,42.15
2018-04-25T15:36:47.811Z,42.10
2018-04-25T15:39:15.348Z,42.64
2018-04-25T15:41:43.601Z,42.99
2018-04-25T15:44:11.192Z,43.33
2018-04-25T15:46:39.675Z,42.91
2018-04-25T15:49:07.752Z,43.26
2018-04-25T15:51:36.103Z,43.34
2018-04-25T15:54:04.407Z,42.89
2018-04-25T15:56:33.576Z,42.72
2018-04-25T15:59:01.988Z,42.70
2018-04-25T16:01:30.268Z,43.29
2018-04-25T16:03:58.549Z,43.63
2018-04-25T16:06:26.099Z,43.63
2018-04-25T16:08:54.048Z,43.35
2018-04-25T16:11:21.813Z,43.50
2018-04-25T16:13:50.173Z,43.96
2018-04-25T16:16:18.323Z,43.53
2018-04-25T16:18:46.899Z,44.03
2018-04-25T16:21:14.799Z,43.84
2018-04-25T16:23:43.071Z,43.59
2018-04-25T16:26:11.178Z,43.56
2018-04-25T16:28:38.984Z,45.24
2018-04-25T16:31:07.035Z,44.47
2018-04-25T16:33:35.375Z,43.44
2018-04-25T16:36:03.354Z,43.24
2018-04-25T16:38:31.112Z,44.08
2018-04-25T16:40:59.019Z,44.69
2018-04-25T16:43:27.285Z,45.60
2018-04-25T16:45:55.445Z,45.94
2018-04-25T16:48:23.210Z,46.33
2018-04-25T16:50:51.150Z,45.73
2018-04-25T16:53:19.930Z,46.24
2018-04-25T16:55:48.123Z,46.78
2018-04-25T16:58:16.436Z,47.05
2018-04-25T17:00:44.788Z,48.15
2018-04-25T17:03:13.351Z,49.20
2018-04-25T17:05:40.994Z,49.50
2018-04-25T17:08:08.729Z,49.88
2018-04-25T17:10:37.511Z,49.56
2018-04-25T17:13:06.075Z,50.16
2018-04-25T17:15:34.550Z,50.69
2018-04-25T17:18:02.294Z,51.50
2018-04-25T17:20:30.021Z,52.49
2018-04-25T17:22:58.072Z,52.79
2018-04-25T17:25:27.334Z,53.09
2018-04-25T17:27:56.340Z,53.51
2018-04-25T17:30:25.074Z,54.40
2018-04-25T17:32:53.334Z,53.29
2018-04-25T17:35:21.925Z,52.49
2018-04-25T17:37:50.976Z,51.70
2018-04-25T17:40:18.802Z,51.34
2018-04-25T17:42:47.541Z,52.05
2018-04-25T17:45:15.816Z,52.03
2018-04-25T17:47:43.510Z,53.04
2018-04-25T17:50:11.498Z,53.75
2018-04-25T17:52:40.011Z,54.33
2018-04-25T17:55:08.352Z,53.95
2018-04-25T17:57:36.697Z,54.28
2018-04-25T18:00:04.858Z,55.40
2018-04-25T18:02:32.868Z,56.08
2018-04-25T18:05:01.220Z,57.05
2018-04-25T18:07:28.976Z,57.03
2018-04-25T18:09:56.498Z,58.53
2018-04-25T18:12:25.624Z,57.91
2018-04-25T18:14:53.300Z,57.76
2018-04-25T18:17:21.005Z,57.79
2018-04-25T18:19:48.946Z,57.71
2018-04-25T18:22:17.179Z,58.01
2018-04-25T18:24:44.786Z,58.23
2018-04-25T18:27:12.480Z,58.91
2018-04-25T18:29:40.411Z,58.35
2018-04-25T18:32:08.055Z,59.26
2018-04-25T18:34:35.914Z,60.92
2018-04-25T18:37:08.151Z,60.46
2018-04-25T18:39:36.682Z,60.30
2018-04-25T18:42:05.765Z,60.78
2018-04-25T18:44:33.649Z,61.74
2018-04-25T18:47:01.947Z,62.07
2018-04-25T18:49:29.954Z,61.73
2018-04-25T18:51:58.250Z,62.28
2018-04-25T18:54:26.611Z,61.78
2018-04-25T18:56:54.800Z,61.92
2018-04-25T18:59:23.694Z,62.70
2018-04-25T19:01:52.294Z,63.68
2018-04-25T19:04:21.240Z,64.08
2018-04-25T19:06:49.615Z,63.45
2018-04-25T19:09:18.730Z,63.58
2018-04-25T19:11:47.190Z,62.83
2018-04-25T19:14:15.779Z,63.00
2018-04-25T19:16:44.268Z,62.65
2018-04-25T19:19:14.321Z,62.25
2018-04-25T19:21:42.979Z,62.71
2018-04-25T19:24:14.376Z,62.68
2018-04-25T19:26:43.131Z,62.46
2018-04-25T19:29:11.493Z,62.07
2018-04-25T19:31:39.608Z,61.67
2018-04-25T19:34:08.265Z,61.46
2018-04-25T19:36:38.065Z,61.75
2018-04-25T19:39:06.395Z,61.82
2018-04-25T19:41:35.469Z,61.51
2018-04-25T19:44:03.721Z,61.45
2018-04-25T19:46:34.019Z,61.65
2018-04-25T19:49:01.896Z,61.73
2018-04-25T19:51:30.399Z,62.28
2018-04-25T19:53:59.015Z,62.54
2018-04-25T19:56:27.233Z,63.02
2018-04-25T19:58:55.944Z,63.55
2018-04-25T20:01:24.860Z,63.52
2018-04-25T20:03:52.905Z,63.36
2018-04-25T20:06:21.873Z,64.57
2018-04-25T20:08:50.164Z,65.98
2018-04-25T20:11:20.511Z,66.12
2018-04-25T20:13:48.902Z,66.64
2018-04-25T20:16:18.732Z,68.21
2018-04-25T20:18:47.421Z,69.56
2018-04-25T20:21:16.390Z,70.09
2018-04-25T20:23:44.771Z,69.92
2018-04-25T20:26:12.911Z,70.76
2018-04-25T20:28:42.950Z,71.06
2018-04-25T20:31:11.680Z,70.54
2018-04-25T20:33:40.327Z,69.92
2018-04-25T20:36:08.383Z,69.00
2018-04-25T20:38:37.744Z,66.90
2018-04-25T20:41:06.451Z,65.45
2018-04-25T20:43:35.206Z,64.93
2018-04-25T20:46:04.007Z,64.65
2018-04-25T20:48:34.498Z,64.19
2018-04-25T20:51:02.997Z,64.18
2018-04-25T20:53:31.025Z,64.26
2018-04-25T20:55:59.167Z,64.07
2018-04-25T20:58:29.759Z,63.93
2018-04-25T21:01:04.641Z,64.02
2018-04-25T21:03:33.435Z,64.26
2018-04-25T21:06:01.572Z,63.80
2018-04-25T21:08:30.366Z,63.90
2018-04-25T21:11:00.214Z,64.02
2018-04-25T21:13:28.081Z,64.01
2018-04-25T21:15:56.460Z,64.22
2018-04-25T21:18:24.571Z,64.32
2018-04-25T21:20:52.817Z,63.64
2018-04-25T21:23:21.061Z,63.81
2018-04-25T21:25:49.014Z,64.30
2018-04-25T21:28:18.029Z,65.17
2018-04-25T21:30:45.930Z,65.89
2018-04-25T21:33:13.740Z,66.25
2018-04-25T21:35:41.454Z,66.97
2018-04-25T21:38:10.064Z,68.81
2018-04-25T21:40:37.875Z,69.11
2018-04-25T21:43:06.258Z,70.41
2018-04-25T21:45:33.975Z,70.89
2018-04-25T21:48:01.662Z,70.40
2018-04-25T21:50:29.950Z,71.05
2018-04-25T21:52:57.600Z,71.02
2018-04-25T21:55:25.816Z,71.42
2018-04-25T21:57:53.871Z,71.58
2018-04-25T22:00:21.611Z,72.73
2018-04-25T22:02:49.966Z,73.64
2018-04-25T22:05:18.196Z,73.55
2018-04-25T22:07:46.262Z,72.85
2018-04-25T22:10:14.122Z,72.47
2018-04-25T22:12:42.096Z,70.95
2018-04-25T22:15:10.742Z,70.22
2018-04-25T22:17:38.549Z,70.03
2018-04-25T22:20:06.290Z,70.37
2018-04-25T22:22:34.452Z,70.38
2018-04-25T22:25:03.202Z,69.92
2018-04-25T22:27:31.082Z,69.30
2018-04-25T22:29:58.837Z,69.10
2018-04-25T22:32:26.743Z,69.61
2018-04-25T22:34:54.425Z,69.60
2018-04-25T22:37:22.569Z,69.25
2018-04-25T22:39:50.448Z,69.40
2018-04-25T22:42:18.352Z,69.52
2018-04-25T22:44:46.254Z,70.06
2018-04-25T22:47:14.274Z,69.61
2018-04-25T22:49:42.064Z,69.53
2018-04-25T22:52:09.915Z,71.10
2018-04-25T22:54:37.776Z,75.15
2018-04-25T22:57:05.646Z,75.66
2018-04-25T22:59:33.719Z,76.50
2018-04-25T23:02:01.337Z,78.13
2018-04-25T23:04:30.165Z,78.26
2018-04-25T23:06:58.671Z,78.54
2018-04-25T23:09:26.944Z,78.07
2018-04-25T23:11:55.695Z,77.52
2018-04-25T23:14:23.730Z,77.41
2018-04-25T23:16:51.541Z,77.68
2018-04-25T23:19:19.620Z,77.22
2018-04-25T23:21:47.650Z,77.22
2018-04-25T23:24:15.285Z,77.12
2018-04-25T23:26:43.836Z,77.05
2018-04-25T23:29:12.085Z,77.22
2018-04-25T23:31:40.280Z,76.71
2018-04-25T23:34:08.392Z,77.43
2018-04-25T23:36:40.010Z,76.11
2018-04-25T23:39:07.776Z,76.47
2018-04-25T23:41:36.461Z,76.94
2018-04-25T23:44:04.441Z,75.98
2018-04-25T23:46:32.752Z,75.82
2018-04-25T23:49:00.711Z,75.82
2018-04-25T23:51:28.250Z,75.71
2018-04-25T23:53:56.291Z,75.41
2018-04-25T23:56:25.346Z,75.54
2018-04-25T23:58:53.223Z,76.28
